Sean Reyna

Olheiro - Houston Dynamo
23 Jan 2028
Domingo
Processo

Personalidade

Adaptabilidade (10) Ambição (6) Controvérsia (13) Lealdade (14) Pressão (5) Profissionalismo (17) Espírito Esportivo (19) Temperamento (3)

Perfil

Estilo de Treinamento Democrático
Licença Nacional A
Determinação 12
Gestão de Pessoas 11
Motivação 6
Disciplina 5
Satisfação no Trabalho
100%
Fadiga
0%
Função Olheiro
Salário 46.8K p/s
Contrato 14.03.2028

Desempenho

Comportamento Bom
Eficácia do Treinamento
51%
Desenvolvimento do Jogador
30%
Prevenção de Lesões
50%
Implementação Tática
55%

Eventos Recentes

Avaliou um jogador agora
Negociação de contrato iniciada agora
Participando de desenvolvimento profissional agora
Avaliou um jogador agora
Negociação de contrato iniciada agora
Participando de desenvolvimento profissional agora
Avaliou um jogador agora
Negociação de contrato iniciada agora

Monitorando agora

121
Jogador Clube Status Habilidade Confiança Observado Última observação Último voto
Chris Rigg Sunderland Ativo 138 / 144 40% 2 22.01.2028 -
Amin Nabizada Exeter City Ativo 107 / 110 40% 1 22.01.2028 -
Oscar Schwartau Norwich City Ativo 128 / 139 40% 1 22.01.2028 -
Ibrahim Fullah Charlton Athletic Ativo 117 / 136 40% 1 20.01.2028 -
Matías Arias Vélez Ativo 119 / 133 40% 1 20.01.2028 -
Gabe Forsyth Colchester United Ativo 113 / 109 40% 1 20.01.2028 -
Bautista Carboni Defensores Unidos Ativo 101 / 121 40% 3 19.01.2028 -
Esquerdinha Notts County Ativo 123 / 121 40% 2 19.01.2028 -
Jake Evans Crewe Alexandra Ativo 108 / 121 40% 1 19.01.2028 -
Shea Lacey Crystal Palace Ativo 130 / 140 40% 2 18.01.2028 -
Luke Brooke-Smith Chesterfield Ativo 95 / 102 40% 1 18.01.2028 -
Pedro Baltika Ativo 141 / 135 40% 1 18.01.2028 -
Rio Ngumoha Plymouth Argyle Ativo 135 / 141 40% 1 17.01.2028 -
Luca Williams-Barnett Walsall Ativo 121 / 130 40% 1 17.01.2028 -
Siyabonga Mabena Bidvest Wits Ativo 117 / 132 40% 2 16.01.2028 -
Sidiki Chérif Newcastle United Ativo 133 / 136 40% 1 16.01.2028 -
Nestory Irankunda Watford Ativo 129 / 134 40% 1 16.01.2028 -
Victor Hernandez Santa Fe Ativo 121 / 111 40% 2 15.01.2028 -
Ryan Kavuma-McQueen Accrington Stanley Ativo 119 / 129 40% 1 15.01.2028 -
Leo Pecover Swindon Town Ativo 97 / 106 40% 1 13.01.2028 -
Lewis Orford Crewe Alexandra Ativo 113 / 115 40% 1 11.01.2028 -
Honest Ahanor Atalanta Ativo 135 / 138 40% 1 11.01.2028 -
Nicolás Barros Schelotto Gimnasia La Plata Ativo 120 / 130 40% 1 08.01.2028 -
Trey Nyoni Rotherham United Ativo 139 / 144 40% 1 08.01.2028 -
Igor Tyjon Barrow AFC Ativo 112 / 123 40% 1 05.01.2028 -
Joran Gerbet Orlando City Ativo 93 / 93 76% 1 26.07.2027 Aprovar
Bongani Jali Free State Stars Ativo 96 / 106 40% 3 06.07.2027 -
Olaniyi Saheed Kwara United Ativo 90 / 102 40% 2 06.07.2027 -
Maldini Kacurri Grimsby Town Ativo 90 / 100 40% 1 06.07.2027 -
Hosea Michael Remo Stars Ativo 94 / 105 40% 2 05.07.2027 -
Jenson Jones Walsall Ativo 91 / 101 40% 1 05.07.2027 -
Jan Bürger Northampton Town Ativo 114 / 122 40% 1 05.07.2027 -
Rhys Walters Port Vale Ativo 105 / 107 40% 2 04.07.2027 -
George Hoddle Cambridge United Ativo 88 / 91 40% 2 04.07.2027 -
Ezra Mayers West Ham United Ativo 115 / 125 40% 2 03.07.2027 -
Mattia Puzone Siracusa Ativo 103 / 106 40% 1 03.07.2027 -
Salvador Blopá Sporting CP Ativo 122 / 127 40% 4 02.07.2027 -
Rhys Chadwick AFC Wimbledon Ativo 100 / 106 40% 1 02.07.2027 -
Olalekan Adeleke Remo Stars Ativo 86 / 87 40% 1 02.07.2027 -
Germán Barbas Burgos Ativo 110 / 123 40% 4 30.06.2027 -
Mpho Khethang FC Diarra Ativo 87 / 102 40% 1 30.06.2027 -
Zane Albarus Shrewsbury Town Ativo 100 / 108 40% 1 30.06.2027 -
Rivaldo Mkhize Black Aces Ativo 79 / 85 40% 2 29.06.2027 -
Teboho Mokoena Black Aces Ativo 80 / 91 40% 1 29.06.2027 -
Riley Owen Stevenage Ativo 102 / 113 40% 2 28.06.2027 -
Ivan Giraldo Valencia Ativo 116 / 125 40% 3 20.06.2027 -
Itumeleng Jali Spezia Ativo 107 / 112 40% 1 20.06.2027 -
Godwin Oham Warri Wolves Ativo 84 / 82 40% 2 19.06.2027 -
Charlie Gray Fleetwood Town Ativo 90 / 104 40% 1 19.06.2027 -
Mbekezeli Mbokazi Chicago Fire Ativo 131 / 124 40% 1 17.06.2027 -
Josh Davidson Milton Keynes Dons Ativo 92 / 104 40% 1 16.06.2027 -
Konta Ismaily Ativo 94 / 104 40% 1 16.06.2027 -
Edwin Asamoah Berekum Chelsea Ativo 81 / 74 40% 2 10.06.2027 -
Kazunari Kita Real Sociedad Ativo 103 / 111 40% 3 07.06.2027 -
Scott Twine Bristol City Ativo 128 / 121 40% 1 11.02.2027 -
Isaiah Jones Luton Town Ativo 122 / 115 40% 1 11.02.2027 -
Habib Diarra Sunderland Ativo 138 / 139 40% 1 11.02.2027 -
Tyreece Campbell Charlton Athletic Ativo 114 / 116 40% 1 07.02.2027 -
Cemran Dansin Orlando Pirates Ativo 106 / 116 40% 1 31.01.2027 -
Joe Johnson Luton Town Ativo 97 / 109 40% 3 30.01.2027 -
Sergey Pinyaev Lokomotiv Moscow Ativo 119 / 127 40% 1 29.01.2027 -
Luka Vušković Tottenham Ativo 145 / 143 40% 1 29.01.2027 -
Axel Frugone Athletic Bilbao Ativo 119 / 117 40% 1 29.01.2027 -
Aldair Faustino Levski Ativo 122 / 107 40% 1 26.01.2027 -
Matvey Kislyak CSKA Moscow Ativo 134 / 144 40% 1 24.01.2027 -
Lucas Mbamba Westerlo Ativo 89 / 91 40% 1 24.01.2027 -
Enrico Delprato Parma Ativo 143 / 131 40% 1 23.01.2027 -
Raoul Bellanova Atalanta Ativo 152 / 155 40% 1 20.01.2027 -
Giacomo Raspadori Atalanta Ativo 151 / 146 40% 1 18.01.2027 -
Álex Centelles Levski Ativo 118 / 113 40% 1 18.01.2027 -
Kirill Glebov CSKA Moscow Ativo 124 / 145 40% 3 15.01.2027 -
Yehor Tverdokhlib LNZ Ativo 110 / 104 40% 1 13.01.2027 -
Samuele Diodato Lumezzane Ativo 97 / 92 40% 1 13.01.2027 -
Miodrag Pivaš Newcastle United Ativo 105 / 115 40% 1 09.01.2027 -
Petar Stanić Ludogorets Ativo 127 / 151 40% 2 08.01.2027 -
Romelle Donovan Brentford Ativo 119 / 136 40% 1 30.12.2026 -
Themba Williams Ajax Cape Town Ativo 113 / 108 40% 4 19.12.2026 -
Isaac Inusah Wa All Stars Ativo 113 / 108 40% 2 19.12.2026 -
Suleiman Camara Slovan Bratislava Ativo 112 / 116 40% 2 18.12.2026 -
Tadeo Allende Inter Miami CF Ativo 125 / 110 40% 1 08.12.2026 -
Jesus Ferreira Seattle Sounders Ativo 134 / 125 40% 1 05.12.2026 -
David Ozoh Derby County Ativo 119 / 121 40% 1 05.12.2026 -
João Félix Dinamo Moscow Ativo 163 / 141 40% 1 02.12.2026 -
Oliver Arblaster Sheffield United Ativo 125 / 123 40% 1 30.11.2026 -
Tyrhys Dolan Espanyol Ativo 133 / 137 40% 1 30.11.2026 -
Jens Petter Hauge Bodo/Glimt Ativo 132 / 153 40% 1 23.11.2026 -
Peter Valjent FK Senica Ativo 111 / 121 40% 2 20.11.2026 -
Jay Stansfield Birmingham Ativo 127 / 117 40% 2 20.11.2026 -
Nazar Voloshyn Dynamo Kyiv Ativo 128 / 110 40% 2 20.11.2026 -
Tom Iorpenda Milton Keynes Dons Ativo 98 / 101 40% 1 20.11.2026 -
Marcelo Allende Mamelodi Sundowns Ativo 131 / 137 40% 2 19.11.2026 -
Diego León Manchester United Ativo 109 / 107 40% 2 11.11.2026 -
Jamie Wähling Hibernians Ativo 81 / 92 40% 2 11.11.2026 -
Bae Jun-Ho Stoke City Ativo 120 / 117 40% 3 07.11.2026 -
Bradley Zwane SuperSport United Ativo 113 / 108 40% 2 05.11.2026 -
Paxten Aaronson Colorado Rapids Ativo 140 / 126 40% 1 05.11.2026 -
Hannes Wolf New York City Ativo 120 / 116 40% 1 29.10.2026 -
Gabriel Pirani San Diego Football Club Ativo 135 / 120 40% 1 29.10.2026 -
Regan Slater Hull City Ativo 117 / 122 40% 1 27.10.2026 -
Daniel Karlsbakk Sarpsborg 08 Ativo 118 / 132 40% 1 27.10.2026 -
Rui Modesto Vancouver Whitecaps Ativo 121 / 121 40% 1 25.10.2026 -
Santiago Rodríguez Columbus Crew Ativo 122 / 115 40% 1 25.10.2026 -
Femi Seriki Sheffield United Ativo 130 / 133 40% 1 23.10.2026 -
Telasco Segovia Inter Miami CF Ativo 137 / 132 40% 1 23.10.2026 Mais informações
Joaquín Pereyra Minnesota United FC Ativo 127 / 118 40% 1 22.10.2026 -
Mathys Tel Tottenham Ativo 142 / 138 40% 1 22.10.2026 -
Diego Luna Real Salt Lake Ativo 121 / 138 40% 2 20.10.2026 -
Amin Boudri Los Angeles Football Club Ativo 123 / 115 40% 1 20.10.2026 -
Diego Gómez Brighton Ativo 146 / 138 40% 1 20.10.2026 -
Emeka Eneli Real Salt Lake Ativo 109 / 123 40% 1 14.10.2026 -
Thalente Mbatha Orlando Pirates Ativo 116 / 126 40% 2 10.10.2026 -
Antonio Galeano Remo Stars Ativo 134 / 108 40% 1 10.10.2026 -
Ifeanyi Okechukwu Rangers International Ativo 81 / 104 40% 1 10.10.2026 -
Khama Mokoena Free State Stars Ativo 86 / 101 40% 1 10.10.2026 -
Martín Ojeda Orlando City Ativo 128 / 146 40% 2 07.10.2026 -
Jorge Ruvalcaba New York Red Bulls Ativo 123 / 118 40% 1 07.10.2026 -
Onyeuche Ujunwa Ikorodu City Ativo 84 / 88 40% 1 06.10.2026 -
Daniel Godwin Niger Tornadoes Ativo 87 / 101 40% 2 09.09.2026 -
Franco Yennerich Talleres Ativo 79 / 80 40% 1 09.09.2026 -
Andy Ezekiel Petrojet Ativo 82 / 97 40% 1 09.09.2026 -
Hayden Hackney Everton Ativo 129 / 142 40% 1 01.08.2026 -